| time (UTC) | temp F | wind direction | speed knots | gust knots | rain 1hr in | rain 24hr in | rain mn in | humidity % | barometer mb |
| 20260906112133 | 68 | 23 | 2.6 | 3.5 | 0.00 | 0.00 | 0.00 | 88 | 1015.9 |
| 20260906111132 | 68 | 23 | 2.6 | 2.6 | 0.00 | 0.00 | 0.00 | 89 | 1015.5 |
| 20260906110131 | 68 | 338 | 0.0 | 2.6 | 0.00 | 0.00 | 0.00 | 89 | 1015.2 |
| 20260906105342 | 69 | 23 | 1.7 | 2.6 | 0.00 | 0.00 | 0.00 | 89 | 1015.2 |
| 20260906105132 | 69 | 23 | 1.7 | 2.6 | 0.00 | 0.00 | 0.00 | 89 | 1015.2 |
| 20260906103131 | 70 | 0 | 2.6 | 2.6 | 0.00 | 0.00 | 0.00 | 89 | 1015.2 |
| 20260906102450 | 70 | 23 | 2.6 | 2.6 | 0.00 | 0.00 | 0.00 | 89 | 1015.2 |
| 20260906102131 | 70 | 23 | 2.6 | 2.6 | 0.00 | 0.00 | 0.00 | 89 | 1015.2 |
| 20260906101539 | 70 | 248 | 1.7 | 1.7 | 0.00 | 0.00 | 0.00 | 89 | 1014.8 |
| 20260906101131 | 70 | 248 | 1.7 | 1.7 | 0.00 | 0.00 | 0.00 | 89 | 1014.8 |
| 20260906095131 | 70 | 23 | 3.5 | 3.5 | 0.00 | 0.00 | 0.00 | 89 | 1014.8 |
| 20260906094131 | 70 | 0 | 0.0 | 1.7 | 0.00 | 0.00 | 0.00 | 89 | 1014.8 |
| 20260906093131 | 70 | 45 | 1.7 | 3.5 | 0.00 | 0.00 | 0.00 | 89 | 1014.8 |
| 20260906092131 | 70 | 0 | 4.3 | 4.3 | 0.00 | 0.00 | 0.00 | 89 | 1014.8 |
| 20260906091131 | 70 | 23 | 3.5 | 3.5 | 0.00 | 0.00 | 0.00 | 89 | 1014.8 |
| 20260906090132 | 70 | 23 | 2.6 | 4.3 | 0.00 | 0.00 | 0.00 | 89 | 1014.8 |
| 20260906085131 | 70 | 113 | 2.6 | 3.5 | 0.00 | 0.00 | 0.00 | 89 | 1014.8 |
| 20260906084131 | 71 | 0 | 2.6 | 3.5 | 0.00 | 0.00 | 0.00 | 89 | 1014.8 |
| 20260906083131 | 71 | 23 | 2.6 | 3.5 | 0.00 | 0.00 | 0.00 | 89 | 1014.8 |
| 20260906082132 | 71 | 23 | 2.6 | 3.5 | 0.00 | 0.00 | 0.00 | 88 | 1014.8 |
| 20260906081133 | 71 | 23 | 2.6 | 2.6 | 0.00 | 0.00 | 0.00 | 88 | 1014.5 |
| 20260906080132 | 71 | 0 | 2.6 | 3.5 | 0.00 | 0.00 | 0.00 | 88 | 1014.5 |
| 20260906075132 | 71 | 23 | 2.6 | 3.5 | 0.00 | 0.00 | 0.00 | 88 | 1014.5 |
| 20260906074132 | 71 | 0 | 3.5 | 3.5 | 0.00 | 0.00 | 0.00 | 88 | 1014.5 |
| 20260906073132 | 71 | 0 | 3.5 | 3.5 | 0.00 | 0.00 | 0.00 | 88 | 1014.5 |
| 20260906072132 | 71 | 23 | 4.3 | 4.3 | 0.00 | 0.00 | 0.00 | 88 | 1014.8 |
| 20260906071132 | 70 | 23 | 3.5 | 3.5 | 0.00 | 0.00 | 0.00 | 88 | 1014.5 |
| 20260906070132 | 70 | 23 | 2.6 | 4.3 | 0.00 | 0.00 | 0.00 | 88 | 1014.8 |
| 20260906065133 | 70 | 23 | 2.6 | 4.3 | 0.00 | 0.00 | 0.00 | 88 | 1014.8 |
| 20260906064132 | 70 | 23 | 3.5 | 4.3 | 0.00 | 0.00 | 0.00 | 88 | 1015.2 |
| 20260906063132 | 71 | 315 | 2.6 | 3.5 | 0.00 | 0.00 | 0.00 | 88 | 1015.2 |
| 20260906062132 | 71 | 315 | 3.5 | 3.5 | 0.00 | 0.00 | 0.00 | 88 | 1015.2 |
| 20260906061133 | 71 | 23 | 2.6 | 2.6 | 0.00 | 0.00 | 0.00 | 87 | 1014.8 |
| 20260906060132 | 71 | 23 | 2.6 | 3.5 | 0.00 | 0.00 | 0.00 | 87 | 1014.8 |
| 20260906055132 | 71 | 338 | 2.6 | 3.5 | 0.00 | 0.00 | 0.00 | 87 | 1014.8 |
| 20260906054132 | 71 | 293 | 1.7 | 3.5 | 0.00 | 0.00 | 0.00 | 87 | 1014.5 |
| 20260906052132 | 70 | 0 | 2.6 | 3.5 | 0.00 | 0.00 | 0.00 | 87 | 1014.5 |
| 20260906051456 | 70 | 338 | 1.7 | 1.7 | 0.00 | 0.00 | 0.00 | 87 | 1014.5 |
| 20260906051133 | 70 | 338 | 1.7 | 1.7 | 0.00 | 0.00 | 0.00 | 87 | 1014.5 |
| 20260906050605 | 70 | 23 | 3.5 | 3.5 | 0.00 | 0.00 | 0.00 | 87 | 1014.5 |
| 20260906050132 | 70 | 23 | 3.5 | 3.5 | 0.00 | 0.00 | 0.00 | 87 | 1014.5 |
| 20260906045132 | 70 | 338 | 2.6 | 3.5 | 0.00 | 0.00 | 0.00 | 87 | 1014.5 |
| 20260906044646 | 71 | 23 | 3.5 | 3.5 | 0.00 | 0.00 | 0.00 | 87 | 1014.2 |
| 20260906044132 | 71 | 23 | 3.5 | 3.5 | 0.00 | 0.00 | 0.00 | 87 | 1014.2 |
| 20260906043132 | 71 | 23 | 3.5 | 3.5 | 0.00 | 0.00 | 0.00 | 87 | 1014.2 |
| 20260906042633 | 71 | 23 | 1.7 | 3.5 | 0.00 | 0.00 | 0.00 | 86 | 1014.5 |
| 20260906042132 | 71 | 23 | 1.7 | 3.5 | 0.00 | 0.00 | 0.00 | 86 | 1014.5 |
| 20260906041132 | 71 | 23 | 2.6 | 2.6 | 0.00 | 0.00 | 0.00 | 86 | 1014.5 |
| 20260906040132 | 71 | 23 | 2.6 | 3.5 | 0.00 | 0.00 | 0.00 | 86 | 1014.5 |
| 20260906035132 | 72 | 0 | 1.7 | 5.2 | 0.00 | 0.00 | 0.00 | 85 | 1014.2 |
| 20260906034432 | 72 | 45 | 3.5 | 4.3 | 0.00 | 0.00 | 0.00 | 85 | 1014.2 |
| 20260906034132 | 72 | 45 | 3.5 | 4.3 | 0.00 | 0.00 | 0.00 | 85 | 1014.2 |
| 20260906033618 | 72 | 45 | 2.6 | 3.5 | 0.00 | 0.00 | 0.00 | 84 | 1014.2 |
| 20260906033132 | 72 | 45 | 2.6 | 3.5 | 0.00 | 0.00 | 0.00 | 84 | 1014.2 |
| 20260906032133 | 73 | 23 | 3.5 | 3.5 | 0.00 | 0.00 | 0.00 | 84 | 1014.2 |
| 20260906031132 | 73 | 315 | 5.2 | 5.2 | 0.00 | 0.00 | 0.00 | 84 | 1013.8 |
| 20260906030132 | 73 | 23 | 3.5 | 5.2 | 0.00 | 0.00 | 0.00 | 83 | 1013.8 |
| 20260906025133 | 74 | 23 | 5.2 | 5.2 | 0.00 | 0.00 | 0.00 | 83 | 1013.8 |
| 20260906024437 | 74 | 45 | 5.2 | 6.1 | 0.00 | 0.00 | 0.00 | 83 | 1013.8 |
| 20260906024133 | 74 | 45 | 5.2 | 6.1 | 0.00 | 0.00 | 0.00 | 83 | 1013.8 |
| 20260906023132 | 75 | 23 | 3.5 | 4.3 | 0.00 | 0.00 | 0.00 | 83 | 1013.8 |
| 20260906022132 | 75 | 0 | 4.3 | 4.3 | 0.00 | 0.00 | 0.00 | 83 | 1013.5 |
| 20260906021132 | 76 | 23 | 2.6 | 2.6 | 0.00 | 0.00 | 0.00 | 82 | 1013.5 |
| 20260906020132 | 76 | 0 | 5.2 | 5.2 | 0.00 | 0.00 | 0.00 | 81 | 1013.5 |
| 20260906015132 | 77 | 23 | 2.6 | 3.5 | 0.00 | 0.00 | 0.00 | 81 | 1013.5 |
| 20260906014132 | 77 | 68 | 3.5 | 4.3 | 0.00 | 0.00 | 0.00 | 80 | 1013.5 |
| 20260906013133 | 78 | 23 | 3.5 | 5.2 | 0.00 | 0.00 | 0.00 | 80 | 1013.2 |
| 20260906012132 | 79 | 45 | 1.7 | 4.3 | 0.00 | 0.00 | 0.00 | 79 | 1012.8 |
| 20260906011133 | 79 | 113 | 3.5 | 3.5 | 0.00 | 0.00 | 0.00 | 78 | 1012.8 |
| 20260906010132 | 80 | 45 | 3.5 | 3.5 | 0.00 | 0.00 | 0.00 | 78 | 1012.8 |
| 20260906005416 | 80 | 23 | 3.5 | 5.2 | 0.00 | 0.00 | 0.00 | 77 | 1012.5 |
| 20260906005132 | 80 | 23 | 3.5 | 5.2 | 0.00 | 0.00 | 0.00 | 77 | 1012.5 |
| 20260906004132 | 81 | 23 | 3.5 | 4.3 | 0.00 | 0.00 | 0.00 | 76 | 1012.5 |
| 20260906003132 | 82 | 23 | 4.3 | 5.2 | 0.00 | 0.00 | 0.00 | 76 | 1012.5 |
| 20260906002134 | 83 | 0 | 4.3 | 4.3 | 0.00 | 0.00 | 0.00 | 76 | 1012.5 |
| 20260906001132 | 84 | 45 | 3.5 | 3.5 | 0.00 | 0.00 | 0.00 | 75 | 1012.1 |
| 20260906000132 | 85 | 45 | 3.5 | 5.2 | 0.00 | 0.00 | 0.00 | 74 | 1012.1 |
| 20260905235132 | 86 | 0 | 5.2 | 6.1 | 0.00 | 0.00 | 0.00 | 73 | 1012.1 |
| 20260905234133 | 87 | 45 | 4.3 | 4.3 | 0.00 | 0.00 | 0.00 | 70 | 1012.1 |
| 20260905233132 | 88 | 338 | 3.5 | 3.5 | 0.00 | 0.00 | 0.00 | 69 | 1011.8 |
| 20260905232507 | 88 | 23 | 2.6 | 3.5 | 0.00 | 0.00 | 0.00 | 69 | 1011.8 |
| 20260905232132 | 88 | 23 | 2.6 | 3.5 | 0.00 | 0.00 | 0.00 | 69 | 1011.8 |
| 20260905231630 | 89 | 23 | 2.6 | 2.6 | 0.00 | 0.00 | 0.00 | 68 | 1011.8 |
| 20260905231132 | 89 | 23 | 2.6 | 2.6 | 0.00 | 0.00 | 0.00 | 68 | 1011.8 |
| 20260905230751 | 90 | 338 | 2.6 | 4.3 | 0.00 | 0.00 | 0.00 | 66 | 1011.8 |
| 20260905230132 | 90 | 338 | 2.6 | 4.3 | 0.00 | 0.00 | 0.00 | 66 | 1011.8 |
| 20260905225132 | 90 | 315 | 2.6 | 5.2 | 0.00 | 0.00 | 0.00 | 64 | 1011.8 |
| 20260905224132 | 90 | 23 | 4.3 | 5.2 | 0.00 | 0.00 | 0.00 | 64 | 1011.8 |
| 20260905223131 | 91 | 338 | 4.3 | 5.2 | 0.00 | 0.00 | 0.00 | 63 | 1011.5 |
| 20260905222132 | 92 | 23 | 3.5 | 5.2 | 0.00 | 0.00 | 0.00 | 63 | 1011.5 |
| 20260905221131 | 92 | 23 | 3.5 | 3.5 | 0.00 | 0.00 | 0.00 | 63 | 1011.5 |
| 20260905220131 | 92 | 270 | 3.5 | 5.2 | 0.00 | 0.00 | 0.00 | 62 | 1011.5 |
| 20260905215132 | 92 | 0 | 3.5 | 6.1 | 0.00 | 0.00 | 0.00 | 63 | 1011.5 |
| 20260905214131 | 92 | 23 | 3.5 | 4.3 | 0.00 | 0.00 | 0.00 | 63 | 1011.5 |
| 20260905213132 | 93 | 0 | 5.2 | 5.2 | 0.00 | 0.00 | 0.00 | 62 | 1011.5 |
| 20260905212132 | 93 | 23 | 1.7 | 4.3 | 0.00 | 0.00 | 0.00 | 62 | 1011.5 |
| 20260905211132 | 93 | 338 | 2.6 | 2.6 | 0.00 | 0.00 | 0.00 | 61 | 1011.8 |
| 20260905210132 | 94 | 23 | 4.3 | 5.2 | 0.00 | 0.00 | 0.00 | 60 | 1011.8 |
| 20260905205132 | 94 | 0 | 3.5 | 5.2 | 0.00 | 0.00 | 0.00 | 60 | 1011.8 |
| 20260905203133 | 95 | 338 | 2.6 | 3.5 | 0.00 | 0.00 | 0.00 | 58 | 1011.8 |
| 20260905202132 | 94 | 293 | 3.5 | 5.2 | 0.00 | 0.00 | 0.00 | 57 | 1011.8 |
| 20260905200131 | 96 | 293 | 4.3 | 4.3 | 0.00 | 0.00 | 0.00 | 56 | 1011.8 |
| 20260905195131 | 96 | 293 | 2.6 | 4.3 | 0.00 | 0.00 | 0.00 | 54 | 1011.8 |
| 20260905194132 | 96 | 270 | 1.7 | 4.3 | 0.00 | 0.00 | 0.00 | 56 | 1012.1 |
| 20260905193131 | 93 | 293 | 3.5 | 4.3 | 0.00 | 0.00 | 0.00 | 59 | 1012.1 |
| 20260905192132 | 96 | 293 | 5.2 | 5.2 | 0.00 | 0.00 | 0.00 | 55 | 1012.1 |
| 20260905191132 | 96 | 293 | 4.3 | 4.3 | 0.00 | 0.00 | 0.00 | 54 | 1012.5 |
| 20260905190132 | 97 | 293 | 2.6 | 4.3 | 0.00 | 0.00 | 0.00 | 54 | 1012.5 |
| 20260905185131 | 96 | 23 | 3.5 | 3.5 | 0.00 | 0.00 | 0.00 | 56 | 1012.5 |
| 20260905184131 | 93 | 315 | 2.6 | 3.5 | 0.00 | 0.00 | 0.00 | 61 | 1012.5 |
| 20260905183131 | 93 | 293 | 3.5 | 3.5 | 0.00 | 0.00 | 0.00 | 59 | 1012.8 |
| 20260905182131 | 95 | 293 | 3.5 | 4.3 | 0.00 | 0.00 | 0.00 | 57 | 1012.8 |
| 20260905181132 | 97 | 293 | 3.5 | 3.5 | 0.00 | 0.00 | 0.00 | 53 | 1012.8 |
| 20260905180131 | 96 | 270 | 1.7 | 3.5 | 0.00 | 0.00 | 0.00 | 51 | 1012.8 |
| 20260905174132 | 96 | 293 | 3.5 | 5.2 | 0.00 | 0.00 | 0.00 | 54 | 1012.8 |
| 20260905173132 | 96 | 315 | 3.5 | 4.3 | 0.00 | 0.00 | 0.00 | 54 | 1013.2 |
| 20260905172131 | 95 | 293 | 3.5 | 4.3 | 0.00 | 0.00 | 0.00 | 56 | 1013.2 |
| 20260905171131 | 96 | 270 | 3.5 | 3.5 | 0.00 | 0.00 | 0.00 | 55 | 1013.2 |
| 20260905170131 | 94 | 293 | 4.3 | 5.2 | 0.00 | 0.00 | 0.00 | 57 | 1013.2 |
| 20260905165132 | 95 | 270 | 1.7 | 2.6 | 0.00 | 0.00 | 0.00 | 60 | 1013.2 |
| 20260905164132 | 95 | 203 | 1.7 | 3.5 | 0.00 | 0.00 | 0.00 | 59 | 1013.2 |
| 20260905163132 | 94 | 293 | 3.5 | 3.5 | 0.00 | 0.00 | 0.00 | 59 | 1013.5 |
| 20260905162131 | 93 | 270 | 0.9 | 3.5 | 0.00 | 0.00 | 0.00 | 64 | 1013.2 |
| 20260905161132 | 94 | 225 | 1.7 | 1.7 | 0.00 | 0.00 | 0.00 | 61 | 1013.5 |
| 20260905160131 | 93 | 270 | 2.6 | 3.5 | 0.00 | 0.00 | 0.00 | 62 | 1013.5 |
| 20260905155132 | 91 | 248 | 1.7 | 2.6 | 0.00 | 0.00 | 0.00 | 67 | 1013.5 |
| 20260905154131 | 91 | 270 | 1.7 | 2.6 | 0.00 | 0.00 | 0.00 | 66 | 1013.5 |
| 20260905153132 | 91 | 293 | 2.6 | 2.6 | 0.00 | 0.00 | 0.00 | 67 | 1013.2 |
| 20260905152131 | 90 | 270 | 1.7 | 2.6 | 0.00 | 0.00 | 0.00 | 69 | 1013.2 |
| 20260905151132 | 89 | 270 | 1.7 | 1.7 | 0.00 | 0.00 | 0.00 | 67 | 1013.2 |
| 20260905150131 | 89 | 248 | 3.5 | 3.5 | 0.00 | 0.00 | 0.00 | 70 | 1013.2 |
| 20260905145131 | 87 | 225 | 2.6 | 2.6 | 0.00 | 0.00 | 0.00 | 72 | 1013.2 |
| 20260905144132 | 86 | 270 | 1.7 | 2.6 | 0.00 | 0.00 | 0.00 | 74 | 1013.2 |
| 20260905143132 | 85 | 293 | 3.5 | 3.5 | 0.00 | 0.00 | 0.00 | 75 | 1013.2 |
| 20260905142132 | 84 | 203 | 0.9 | 2.6 | 0.00 | 0.00 | 0.00 | 77 | 1013.2 |
| 20260905141131 | 83 | 248 | 1.7 | 1.7 | 0.00 | 0.00 | 0.00 | 77 | 1013.5 |
| 20260905140132 | 82 | 180 | 1.7 | 2.6 | 0.00 | 0.00 | 0.00 | 77 | 1013.2 |
| 20260905135131 | 82 | 225 | 2.6 | 2.6 | 0.00 | 0.00 | 0.00 | 77 | 1013.2 |
| 20260905134131 | 81 | 203 | 1.7 | 2.6 | 0.00 | 0.00 | 0.00 | 80 | 1013.2 |
| 20260905132131 | 79 | 180 | 2.6 | 2.6 | 0.00 | 0.00 | 0.00 | 81 | 1013.2 |
| 20260905131437 | 79 | 180 | 0.0 | 0.0 | 0.00 | 0.00 | 0.00 | 82 | 1013.5 |
| 20260905131132 | 79 | 180 | 0.0 | 0.0 | 0.00 | 0.00 | 0.00 | 82 | 1013.5 |
| 20260905130131 | 78 | 203 | 1.7 | 2.6 | 0.00 | 0.00 | 0.00 | 82 | 1013.2 |
| 20260905125132 | 78 | 203 | 0.0 | 1.7 | 0.00 | 0.00 | 0.00 | 83 | 1013.2 |
| 20260905124132 | 77 | 180 | 0.0 | 1.7 | 0.00 | 0.00 | 0.00 | 83 | 1013.2 |
| 20260905123131 | 77 | 180 | 1.7 | 1.7 | 0.00 | 0.00 | 0.00 | 83 | 1013.2 |
| 20260905122132 | 77 | 135 | 0.0 | 0.0 | 0.00 | 0.00 | 0.00 | 84 | 1013.2 |
| 20260905121132 | 77 | 180 | 0.0 | 0.0 | 0.00 | 0.00 | 0.00 | 85 | 1013.2 |
| 20260905120133 | 76 | 180 | 0.0 | 0.0 | 0.00 | 0.00 | 0.00 | 86 | 1012.8 |
| 20260905115133 | 76 | 180 | 0.0 | 0.0 | 0.00 | 0.00 | 0.00 | 86 | 1012.8 |
| 20260905114132 | 76 | 180 | 0.0 | 0.0 | 0.00 | 0.00 | 0.00 | 86 | 1012.8 |
| 20260905113132 | 76 | 180 | 0.0 | 0.0 | 0.00 | 0.00 | 0.00 | 86 | 1012.8 |